Dunham, Kentucky
Current Conditions -  °F | °C
As of 6:55 AM on Monday 22 Dec 2014 (Local Time) from KLNP Reporting Station
Overcast Overcast  
Wind Chill: 37°   Ceiling: 2800
Heat Index: 41°   Visibility: 10mi
Dew Point: 34°   Wind: 6mph
Humidity: 76%   Direction: 150°SSE
Pressure: 30.03"   Gusts: NA
Location:  37.1955°N, 82.6325°W
Report Text: KLNP 221155Z AUTO 15005KT 10SM OVC028 05/01 A3003 RMK AO2
Loading
Personal Weather Stations






























Interactive Weather Map New forecast layout! Learn more

10-Day Weather Forecast

Advertisements
Track Severe Weather on mobile